Aérodrome :
LOGIN :

S'inscrire | Disclaimer

   EN    FR    IT 

 










Légende :    VFR   VFR Marginal   IFR   IFR Intensif   IFR Très Intensif
Visi : 
Plafond : 
>= 8 km
>= 3000ft
5 à 8 km
1000 à 3000 ft
1500m à 5 km
500 à 1000 ft
800 à 1500m
200 à 500 ft
< 800m
< 200 ft
Symboles :   Orages  Brouillard  Fortes neiges  Fortes précipitations  Vent > 20 kt
SIGMETs :   Divers  Orages  Givrage  Turbulence  Onde Orograph.  Cendres Volcan.







- Altitude de l'aérodrome : 19 ft
- Code IATA : LCY
- Voir les cartes d'approche


EGLC - London City

DERNIER METAR :
  • 270750Z AUTO 08008KT 9999 BKN049 09/07 Q1009

METARs EXPIRÉS :
  • 270720Z AUTO 11008KT 9999 -RA BKN043 08/06 Q1010
  • 270650Z AUTO 09005KT 9999 -RA SCT030/// OVC043/// //////TCU 08/06 Q1010
  • 270620Z AUTO 17004KT 100V250 9000 -RA FEW029/// BKN037/// //////TCU 08/06 Q1011
  • 270550Z AUTO 19006KT 130V220 9999 -RA BKN037/// //////TCU 09/06 Q1011
  • 270520Z AUTO 17004KT 110V200 9999 -RA FEW013 BKN044 09/07 Q1011

TAF TAF EGLC
Valide du 27 à 06h jusqu'au 27 à 15h UTC


270502Z 2706/2715 10008KT 9999 SCT030
TEMPO 2706/2715 6000 RA
ATIS : +44 20 7646 0224
Pas de NOTAMs connus pour ce terrain.



MET'MAP, la Météo Aéronautique d'un coup d'oeil ! - Copyright ORBIFLY Décembre 2007 - Disclaimer

ORBIFLY MET'MAP TEAM :

Programmation & Développement : Alexandra Zaïnal
Conception & Développement : Baudouin d'Aumeries
Co-Programmation & Développement : Marc-Olivier Méhu
Soutien technique & logistique : Manuel Goepfert

Contact : metmap@orbifly.com




SOURCES & CREDITS :

   NOAA